createdAt,value
2023-01-29T00:02:52.372Z,42.35
2023-01-29T00:05:55.462Z,44.70
2023-01-29T00:08:58.976Z,41.35
2023-01-29T00:12:02.375Z,42.25
2023-01-29T00:15:10.743Z,40.33
2023-01-29T00:18:14.726Z,49.00
2023-01-29T00:21:20.186Z,47.77
2023-01-29T00:24:25.857Z,41.38
2023-01-29T00:27:29.961Z,44.67
2023-01-29T00:30:33.766Z,41.97
2023-01-29T00:33:36.984Z,42.38
2023-01-29T00:36:40.139Z,42.50
2023-01-29T00:39:48.097Z,41.20
2023-01-29T00:43:10.589Z,45.35
2023-01-29T00:46:14.767Z,41.42
2023-01-29T00:49:18.069Z,43.28
2023-01-29T00:52:27.082Z,41.57
2023-01-29T00:55:30.336Z,42.95
2023-01-29T00:58:36.079Z,44.80
2023-01-29T01:01:59.027Z,41.17
2023-01-29T01:05:06.335Z,40.67
2023-01-29T01:08:29.548Z,40.47
2023-01-29T01:11:34.357Z,40.75
2023-01-29T01:14:37.476Z,44.42
2023-01-29T01:17:40.525Z,39.63
2023-01-29T01:20:51.707Z,40.85
2023-01-29T01:23:54.775Z,40.40
2023-01-29T01:26:57.873Z,42.78
2023-01-29T01:30:01.093Z,41.38
2023-01-29T01:33:06.802Z,39.33
2023-01-29T01:36:10.062Z,41.05
2023-01-29T01:39:13.558Z,39.93
2023-01-29T01:42:16.755Z,37.67
2023-01-29T01:45:26.148Z,42.15
2023-01-29T01:48:30.760Z,40.38
2023-01-29T01:51:39.391Z,39.90
2023-01-29T01:54:44.674Z,44.33
2023-01-29T01:57:53.125Z,42.35
2023-01-29T02:00:57.502Z,47.85
2023-01-29T02:04:26.372Z,41.05
2023-01-29T02:07:48.161Z,39.10
2023-01-29T02:10:51.431Z,42.33
2023-01-29T02:13:54.756Z,46.83
2023-01-29T02:17:02.234Z,42.55
2023-01-29T02:20:18.150Z,39.88
2023-01-29T02:23:43.496Z,38.05
2023-01-29T02:26:59.925Z,38.13
2023-01-29T02:30:36.259Z,39.88
2023-01-29T02:33:59.562Z,41.92
2023-01-29T02:37:09.863Z,46.92
2023-01-29T02:40:37.229Z,43.03
2023-01-29T02:43:40.353Z,39.63
2023-01-29T02:46:51.993Z,40.47
2023-01-29T02:50:26.020Z,43.63
2023-01-29T02:53:35.324Z,39.05
2023-01-29T02:56:51.934Z,38.58
2023-01-29T03:00:10.659Z,43.67
2023-01-29T03:03:17.892Z,39.92
2023-01-29T03:06:28.551Z,41.92
2023-01-29T03:09:39.835Z,39.05
2023-01-29T03:12:47.352Z,39.63
2023-01-29T03:16:01.753Z,38.50
2023-01-29T03:19:36.895Z,39.90
2023-01-29T03:22:51.905Z,40.70
2023-01-29T03:26:18.316Z,43.15
2023-01-29T03:29:40.996Z,41.17
2023-01-29T03:32:47.036Z,40.60
2023-01-29T03:35:56.994Z,45.70
2023-01-29T03:39:00.507Z,42.80
2023-01-29T03:42:22.574Z,41.03
2023-01-29T03:46:08.664Z,40.80
2023-01-29T03:49:19.783Z,40.47
2023-01-29T03:52:39.126Z,39.78
2023-01-29T03:55:59.894Z,33.35
2023-01-29T03:59:12.071Z,35.95
2023-01-29T04:02:49.272Z,37.05
2023-01-29T04:05:52.647Z,38.13
2023-01-29T04:09:11.012Z,37.95
2023-01-29T04:12:26.966Z,46.17
2023-01-29T04:15:34.882Z,38.28
2023-01-29T04:18:37.919Z,40.13
2023-01-29T04:21:45.151Z,42.37
2023-01-29T04:24:50.329Z,38.00
2023-01-29T04:28:18.387Z,40.92
2023-01-29T04:31:25.347Z,35.08
2023-01-29T04:34:35.601Z,36.63
2023-01-29T04:37:45.913Z,35.40
2023-01-29T04:40:57.253Z,41.88
2023-01-29T04:44:15.441Z,38.70
2023-01-29T04:47:43.586Z,32.95
2023-01-29T04:50:55.835Z,35.83
2023-01-29T04:54:14.121Z,34.67
2023-01-29T04:57:25.646Z,39.15
2023-01-29T05:00:35.136Z,38.30
2023-01-29T05:03:40.815Z,37.28
2023-01-29T05:06:45.109Z,37.42
2023-01-29T05:09:49.733Z,37.10
2023-01-29T05:13:00.691Z,37.47
2023-01-29T05:16:21.891Z,38.55
2023-01-29T05:19:24.848Z,35.88
2023-01-29T05:22:28.095Z,38.75
2023-01-29T05:25:33.302Z,45.47
2023-01-29T05:28:36.242Z,43.67
2023-01-29T05:31:39.404Z,37.17
2023-01-29T05:34:42.715Z,36.67
2023-01-29T05:37:45.908Z,37.03
2023-01-29T05:41:08.510Z,33.40
2023-01-29T05:44:11.481Z,34.78
2023-01-29T05:47:14.294Z,34.65
2023-01-29T05:50:17.561Z,32.50
2023-01-29T05:53:20.612Z,36.05
2023-01-29T05:56:23.646Z,37.13
2023-01-29T05:59:26.573Z,33.75
2023-01-29T06:02:32.673Z,31.08
2023-01-29T06:05:38.729Z,33.03
2023-01-29T06:08:41.956Z,34.53
2023-01-29T06:11:45.085Z,31.90
2023-01-29T06:14:48.032Z,32.33
2023-01-29T06:17:50.725Z,31.35
2023-01-29T06:20:53.797Z,38.35
2023-01-29T06:23:56.863Z,28.98
2023-01-29T06:26:59.956Z,31.93
2023-01-29T06:30:04.705Z,35.25
2023-01-29T06:33:07.738Z,39.15
2023-01-29T06:36:10.668Z,37.22
2023-01-29T06:39:13.500Z,34.35
2023-01-29T06:42:16.434Z,33.80
2023-01-29T06:45:19.413Z,31.30
2023-01-29T06:48:23.789Z,32.88
2023-01-29T06:51:26.684Z,33.60
2023-01-29T06:54:29.770Z,29.83
2023-01-29T06:57:32.620Z,29.30
2023-01-29T07:00:36.325Z,35.78
2023-01-29T07:03:39.404Z,34.63
2023-01-29T07:06:42.109Z,27.05
2023-01-29T07:09:44.831Z,37.40
2023-01-29T07:12:47.834Z,31.77
2023-01-29T07:15:50.560Z,34.58
2023-01-29T07:18:53.416Z,34.63
2023-01-29T07:21:56.294Z,30.80
2023-01-29T07:24:59.220Z,35.50
2023-01-29T07:28:02.492Z,35.67
2023-01-29T07:31:06.283Z,38.10
2023-01-29T07:34:09.510Z,37.30
2023-01-29T07:37:12.475Z,38.45
2023-01-29T07:40:16.249Z,40.78
2023-01-29T07:43:19.565Z,40.77
2023-01-29T07:46:22.460Z,33.50
2023-01-29T07:49:27.221Z,34.25
2023-01-29T07:52:31.636Z,40.42
2023-01-29T07:55:34.527Z,40.00
2023-01-29T07:58:37.402Z,32.43
2023-01-29T08:01:40.188Z,30.50
2023-01-29T08:04:42.988Z,33.60
2023-01-29T08:07:49.349Z,33.95
2023-01-29T08:11:03.120Z,37.45
2023-01-29T08:14:06.025Z,31.63
2023-01-29T08:17:08.822Z,36.17
2023-01-29T08:20:19.698Z,26.58
2023-01-29T08:23:23.307Z,31.40
2023-01-29T08:26:27.972Z,30.27
2023-01-29T08:29:31.373Z,35.67
2023-01-29T08:32:34.316Z,32.05
2023-01-29T08:35:37.662Z,27.30
2023-01-29T08:38:40.673Z,31.10
2023-01-29T08:41:43.901Z,30.33
2023-01-29T08:44:47.026Z,29.03
2023-01-29T08:47:50.744Z,30.35
2023-01-29T08:50:57.105Z,25.73
2023-01-29T08:54:00.197Z,29.92
2023-01-29T08:57:03.776Z,26.15
2023-01-29T09:00:09.508Z,28.83
2023-01-29T09:03:12.577Z,27.92
2023-01-29T09:06:15.460Z,25.90
2023-01-29T09:09:18.700Z,23.08
2023-01-29T09:12:21.632Z,25.45
2023-01-29T09:15:24.771Z,23.73
2023-01-29T09:18:28.481Z,27.83
2023-01-29T09:21:31.601Z,24.35
2023-01-29T09:24:35.312Z,31.10
2023-01-29T09:27:38.267Z,27.02
2023-01-29T09:30:41.384Z,26.47
2023-01-29T09:33:44.371Z,22.70
2023-01-29T09:36:47.318Z,27.05
2023-01-29T09:39:50.602Z,29.00
2023-01-29T09:43:43.218Z,25.98
2023-01-29T09:46:48.707Z,22.97
2023-01-29T09:50:18.428Z,24.05
2023-01-29T09:53:34.714Z,24.52
2023-01-29T09:56:37.619Z,24.70
2023-01-29T09:59:40.714Z,25.23
2023-01-29T10:03:03.993Z,24.47
2023-01-29T10:06:37.407Z,24.85
2023-01-29T10:10:07.878Z,29.75
2023-01-29T10:13:37.152Z,25.98
2023-01-29T10:16:46.254Z,27.95
2023-01-29T10:20:07.950Z,24.03
2023-01-29T10:23:38.732Z,24.58
2023-01-29T10:26:41.751Z,23.27
2023-01-29T10:29:47.524Z,24.48
2023-01-29T10:32:50.937Z,20.73
2023-01-29T10:36:00.307Z,24.30
2023-01-29T10:39:03.498Z,18.65
2023-01-29T10:42:34.226Z,21.23
2023-01-29T10:46:15.600Z,21.48
2023-01-29T10:49:37.380Z,20.38
2023-01-29T10:52:58.997Z,24.43
2023-01-29T10:56:31.371Z,21.52
2023-01-29T10:59:47.957Z,22.70
2023-01-29T11:02:52.153Z,20.63
2023-01-29T11:06:13.085Z,14.85
2023-01-29T11:09:26.838Z,17.20
2023-01-29T11:12:32.324Z,15.70
2023-01-29T11:15:35.275Z,21.48
2023-01-29T11:18:59.764Z,18.48
2023-01-29T11:22:04.543Z,17.75
2023-01-29T11:25:26.307Z,18.33
2023-01-29T11:28:47.073Z,19.88
2023-01-29T11:31:50.045Z,22.73
2023-01-29T11:35:16.370Z,22.02
2023-01-29T11:38:28.271Z,17.55
2023-01-29T11:41:31.082Z,23.27
2023-01-29T11:44:40.674Z,20.45
2023-01-29T11:47:48.446Z,21.50
2023-01-29T11:51:02.448Z,21.02
2023-01-29T11:54:06.622Z,21.13
2023-01-29T11:57:24.012Z,24.37
2023-01-29T12:00:29.988Z,23.75
2023-01-29T12:03:39.772Z,19.17
2023-01-29T12:06:45.599Z,16.38
2023-01-29T12:09:57.186Z,19.05
2023-01-29T12:13:10.098Z,12.50
2023-01-29T12:16:24.030Z,13.73
2023-01-29T12:19:35.404Z,13.95
2023-01-29T12:23:11.473Z,14.02
2023-01-29T12:26:33.014Z,12.13
2023-01-29T12:30:13.262Z,13.30
2023-01-29T12:33:58.538Z,15.40
2023-01-29T12:37:11.652Z,17.60
2023-01-29T12:40:17.197Z,17.25
2023-01-29T12:43:41.416Z,12.70
2023-01-29T12:46:50.791Z,13.03
2023-01-29T12:50:02.534Z,11.93
2023-01-29T12:53:08.712Z,11.88
2023-01-29T12:56:19.329Z,16.23
2023-01-29T12:59:37.784Z,12.38
2023-01-29T13:03:19.623Z,14.40
2023-01-29T13:06:34.539Z,14.32
2023-01-29T13:09:41.829Z,14.43
2023-01-29T13:12:55.951Z,13.25
2023-01-29T13:16:01.451Z,14.30
2023-01-29T13:19:24.249Z,13.40
2023-01-29T13:22:40.759Z,14.43
2023-01-29T13:25:43.915Z,14.15
2023-01-29T13:28:48.394Z,10.45
2023-01-29T13:31:53.708Z,9.68
2023-01-29T13:35:05.159Z,9.43
2023-01-29T13:38:25.687Z,10.60
2023-01-29T13:41:37.351Z,9.77
2023-01-29T13:44:41.694Z,8.90
2023-01-29T13:47:45.763Z,9.25
2023-01-29T13:50:51.512Z,8.00
2023-01-29T13:54:04.203Z,15.85
2023-01-29T13:57:35.933Z,14.60
2023-01-29T14:00:38.676Z,13.38
2023-01-29T14:04:03.335Z,12.75
2023-01-29T14:07:48.888Z,15.63
2023-01-29T14:11:17.323Z,9.60
2023-01-29T14:15:02.720Z,15.18
2023-01-29T14:18:08.843Z,18.55
2023-01-29T14:21:12.043Z,18.50
2023-01-29T14:24:21.321Z,14.53
2023-01-29T14:27:28.290Z,17.25
2023-01-29T14:30:34.507Z,18.75
2023-01-29T14:33:41.157Z,18.17
2023-01-29T14:36:47.409Z,19.02
2023-01-29T14:39:59.562Z,13.40
2023-01-29T14:43:20.148Z,18.33
2023-01-29T14:46:35.466Z,19.63
2023-01-29T14:50:26.377Z,20.35
2023-01-29T14:53:44.423Z,19.75
2023-01-29T14:57:06.144Z,19.40
2023-01-29T15:00:24.376Z,19.33
2023-01-29T15:03:48.481Z,22.10
2023-01-29T15:07:32.677Z,16.13
2023-01-29T15:11:13.235Z,19.40
2023-01-29T15:14:16.878Z,23.00
2023-01-29T15:18:02.319Z,23.85
2023-01-29T15:21:15.257Z,21.65
2023-01-29T15:24:18.144Z,16.10
2023-01-29T15:27:20.976Z,20.27
2023-01-29T15:30:33.717Z,24.83
2023-01-29T15:33:38.828Z,23.85
2023-01-29T15:36:41.715Z,17.98
2023-01-29T15:39:45.634Z,18.85
2023-01-29T15:42:48.953Z,16.60
2023-01-29T15:45:54.130Z,20.80
2023-01-29T15:49:00.462Z,19.30
2023-01-29T15:52:08.104Z,28.48
2023-01-29T15:55:15.445Z,27.15
2023-01-29T15:58:24.531Z,24.17
2023-01-29T16:01:28.744Z,18.27
2023-01-29T16:04:32.086Z,21.90
2023-01-29T16:07:36.355Z,16.80
2023-01-29T16:10:42.237Z,25.05
2023-01-29T16:13:47.964Z,27.58
2023-01-29T16:16:52.647Z,23.43
2023-01-29T16:20:00.563Z,22.48
2023-01-29T16:23:05.078Z,24.92
2023-01-29T16:26:13.398Z,27.98
2023-01-29T16:29:21.937Z,27.40
2023-01-29T16:32:25.062Z,33.17
2023-01-29T16:35:28.154Z,34.70
2023-01-29T16:38:35.436Z,28.67
2023-01-29T16:41:38.805Z,28.50
2023-01-29T16:44:57.866Z,23.92
2023-01-29T16:48:19.181Z,26.33
2023-01-29T16:51:30.854Z,29.60
2023-01-29T16:54:33.893Z,28.38
2023-01-29T16:57:38.689Z,28.52
2023-01-29T17:00:53.243Z,32.60
2023-01-29T17:04:02.224Z,28.20
2023-01-29T17:07:05.494Z,24.98
2023-01-29T17:10:16.748Z,18.75
2023-01-29T17:13:43.073Z,22.98
2023-01-29T17:16:51.311Z,21.27
2023-01-29T17:19:54.338Z,20.73
2023-01-29T17:22:57.397Z,27.23
2023-01-29T17:26:00.446Z,25.15
2023-01-29T17:29:03.826Z,24.38
2023-01-29T17:32:06.963Z,21.02
2023-01-29T17:35:14.313Z,18.83
2023-01-29T17:38:26.011Z,20.55
2023-01-29T17:41:30.805Z,20.45
2023-01-29T17:44:34.482Z,18.67
2023-01-29T17:47:37.543Z,25.25
2023-01-29T17:50:43.705Z,23.73
2023-01-29T17:53:47.599Z,20.33
2023-01-29T17:56:52.468Z,22.15
2023-01-29T17:59:55.548Z,23.77
2023-01-29T18:03:03.201Z,20.08
2023-01-29T18:06:10.318Z,18.10
2023-01-29T18:09:15.015Z,19.63
2023-01-29T18:12:18.169Z,18.38
2023-01-29T18:15:21.382Z,21.05
2023-01-29T18:18:26.235Z,19.15
2023-01-29T18:21:29.374Z,23.07
2023-01-29T18:24:32.270Z,21.08
2023-01-29T18:27:35.337Z,25.77
2023-01-29T18:30:38.343Z,21.85
2023-01-29T18:33:41.571Z,19.58
2023-01-29T18:36:47.765Z,16.57
2023-01-29T18:39:50.847Z,15.85
2023-01-29T18:42:53.974Z,17.75
2023-01-29T18:46:00.109Z,17.17
2023-01-29T18:49:03.508Z,15.25
2023-01-29T18:52:07.781Z,17.70
2023-01-29T18:55:10.615Z,20.13
2023-01-29T18:58:33.917Z,19.15
2023-01-29T19:01:37.153Z,19.98
2023-01-29T19:04:40.915Z,22.58
2023-01-29T19:07:44.235Z,19.10
2023-01-29T19:10:47.529Z,20.73
2023-01-29T19:13:55.093Z,20.63
2023-01-29T19:16:58.371Z,18.83
2023-01-29T19:20:04.945Z,19.95
2023-01-29T19:23:09.058Z,21.10
2023-01-29T19:26:13.715Z,19.75
2023-01-29T19:29:18.187Z,16.65
2023-01-29T19:32:21.332Z,17.30
2023-01-29T19:35:24.585Z,16.80
2023-01-29T19:38:28.799Z,17.37
2023-01-29T19:41:32.886Z,20.42
2023-01-29T19:44:39.120Z,22.02
2023-01-29T19:47:43.839Z,22.83
2023-01-29T19:50:52.675Z,21.65
2023-01-29T19:53:55.413Z,24.40
2023-01-29T19:56:58.284Z,24.45
2023-01-29T20:00:01.827Z,21.70
2023-01-29T20:03:07.247Z,24.25
2023-01-29T20:06:11.479Z,16.92
2023-01-29T20:09:14.867Z,18.67
2023-01-29T20:12:18.189Z,19.38
2023-01-29T20:15:22.464Z,21.63
2023-01-29T20:18:25.868Z,18.23
2023-01-29T20:21:29.111Z,18.83
2023-01-29T20:24:34.731Z,18.67
2023-01-29T20:27:37.999Z,22.45
2023-01-29T20:30:45.618Z,18.92
2023-01-29T20:33:48.773Z,20.50
2023-01-29T20:36:51.780Z,24.98
2023-01-29T20:40:00.575Z,25.10
2023-01-29T20:43:05.504Z,23.50
2023-01-29T20:46:09.733Z,21.73
2023-01-29T20:49:12.865Z,19.88
2023-01-29T20:52:15.881Z,22.10
2023-01-29T20:55:19.042Z,21.80
2023-01-29T20:58:22.171Z,23.25
2023-01-29T21:01:25.274Z,25.67
2023-01-29T21:04:28.426Z,24.30
2023-01-29T21:07:31.596Z,26.05
2023-01-29T21:10:34.728Z,25.07
2023-01-29T21:13:38.082Z,28.10
2023-01-29T21:16:41.562Z,23.40
2023-01-29T21:19:44.858Z,23.17
2023-01-29T21:22:49.352Z,22.30
2023-01-29T21:25:52.568Z,19.40
2023-01-29T21:28:56.509Z,23.65
2023-01-29T21:31:59.703Z,29.75
2023-01-29T21:35:04.428Z,30.95
2023-01-29T21:38:07.583Z,32.47
2023-01-29T21:41:10.699Z,47.17
2023-01-29T21:44:13.906Z,45.33
2023-01-29T21:47:17.125Z,42.42
2023-01-29T21:50:20.888Z,45.38
2023-01-29T21:53:24.456Z,40.78
2023-01-29T21:56:27.977Z,41.20
2023-01-29T21:59:32.767Z,34.78
2023-01-29T22:02:36.028Z,35.70
2023-01-29T22:05:39.768Z,35.13
2023-01-29T22:08:43.080Z,41.00
2023-01-29T22:11:46.503Z,36.87
2023-01-29T22:14:50.979Z,40.92
2023-01-29T22:17:54.055Z,33.55
2023-01-29T22:20:57.744Z,30.75
2023-01-29T22:24:00.819Z,25.05
2023-01-29T22:27:04.058Z,31.73
2023-01-29T22:30:07.831Z,35.15
2023-01-29T22:33:11.221Z,31.85
2023-01-29T22:36:14.148Z,26.05
2023-01-29T22:39:17.284Z,22.30
2023-01-29T22:42:20.945Z,38.53
2023-01-29T22:45:23.937Z,48.92
2023-01-29T22:48:28.686Z,46.60
2023-01-29T22:51:32.754Z,55.88
2023-01-29T22:54:40.969Z,59.28
2023-01-29T22:57:44.029Z,59.50
2023-01-29T23:00:51.423Z,57.08
2023-01-29T23:03:54.758Z,51.08
2023-01-29T23:06:58.606Z,54.22
2023-01-29T23:10:01.712Z,49.50
2023-01-29T23:13:04.821Z,46.47
2023-01-29T23:16:08.579Z,34.08
2023-01-29T23:19:12.481Z,28.52
2023-01-29T23:22:18.322Z,37.88
2023-01-29T23:25:21.466Z,27.52
2023-01-29T23:28:24.742Z,28.43
2023-01-29T23:31:27.802Z,32.85
2023-01-29T23:34:31.040Z,30.33
2023-01-29T23:37:34.698Z,35.13
2023-01-29T23:40:37.654Z,38.45
2023-01-29T23:43:40.822Z,41.03
2023-01-29T23:46:44.504Z,52.88
2023-01-29T23:49:47.605Z,68.25
2023-01-29T23:52:50.847Z,76.03
2023-01-29T23:56:03.099Z,63.50
2023-01-29T23:59:07.316Z,50.43
